Time;durP1;ratioP1;P1;durP2;ratioP2;P2;SDS_P1;SDS_P2;PMS_P1;PMS_P2;Temp;Humidity;BMP_temperature;BMP_pressure;BME280_temperature;BME280_humidity;BME280_pressure;Samples;Min_cycle;Max_cycle;Signal;HPM_P1;HPM_P2
2022/08/04 00:02:15;;;;;;;3.37;3.07;;;20.80;99.90;;;;;;5078430;28;20503;-55
2022/08/04 00:04:53;;;;;;;3.37;3.00;;;20.90;99.90;;;;;;5078098;28;20435;-55
2022/08/04 00:07:40;;;;;;;4.83;3.40;;;20.90;99.90;;;;;;5077272;28;20764;-58
2022/08/04 00:10:09;;;;;;;4.20;3.67;;;20.80;99.90;;;;;;5077945;28;20897;-58
2022/08/04 00:12:41;;;;;;;4.73;3.77;;;20.80;99.90;;;;;;5077581;28;20514;-58
2022/08/04 00:15:14;;;;;;;4.07;3.27;;;20.80;99.90;;;;;;5075937;28;20519;-57
2022/08/04 00:17:44;;;;;;;7.03;3.47;;;20.80;99.90;;;;;;5076807;28;20871;-56
2022/08/04 00:20:21;;;;;;;3.77;2.97;;;20.70;99.90;;;;;;5077392;28;20497;-59
2022/08/04 00:22:54;;;;;;;4.30;3.20;;;20.70;99.90;;;;;;5076317;28;20516;-56
2022/08/04 00:25:24;;;;;;;5.03;3.60;;;20.70;99.90;;;;;;5076818;28;20465;-53
2022/08/04 00:27:54;;;;;;;3.80;3.23;;;20.60;99.90;;;;;;5077053;28;20467;-56
2022/08/04 00:30:28;;;;;;;6.33;3.47;;;20.60;99.90;;;;;;5076889;28;20468;-53
2022/08/04 00:32:57;;;;;;;3.77;3.03;;;20.60;99.90;;;;;;5076874;28;20507;-52
2022/08/04 00:35:27;;;;;;;4.93;3.93;;;20.50;99.90;;;;;;5077336;28;20553;-53
2022/08/04 00:37:55;;;;;;;5.83;3.40;;;20.50;99.90;;;;;;5077479;28;20461;-52
2022/08/04 00:40:37;;;;;;;4.10;3.40;;;20.50;99.90;;;;;;5077037;28;20440;-56
2022/08/04 00:43:12;;;;;;;5.60;3.13;;;20.30;99.90;;;;;;5076803;28;20493;-55
2022/08/04 00:46:11;;;;;;;7.67;3.20;;;20.20;99.90;;;;;;5077393;28;20475;-56
2022/08/04 00:49:00;;;;;;;5.63;3.80;;;20.20;99.90;;;;;;5077277;28;20457;-59
2022/08/04 00:51:38;;;;;;;4.70;3.37;;;20.20;99.90;;;;;;5077228;28;20905;-55
2022/08/04 00:54:15;;;;;;;5.30;3.47;;;20.20;99.90;;;;;;5077134;28;20485;-58
2022/08/04 00:57:03;;;;;;;4.10;3.30;;;20.20;99.90;;;;;;5077210;28;20457;-56
2022/08/04 00:59:45;;;;;;;4.90;3.13;;;20.10;1.00;;;;;;5075894;28;20536;-56
2022/08/04 01:02:25;;;;;;;7.10;3.70;;;20.10;1.00;;;;;;5070091;28;20944;-56
2022/08/04 01:05:03;;;;;;;5.80;3.80;;;20.10;1.00;;;;;;5071515;28;20461;-52
2022/08/04 01:07:49;;;;;;;4.10;3.67;;;20.00;1.00;;;;;;5075541;28;20536;-57
2022/08/04 01:10:28;;;;;;;4.27;3.60;;;20.00;1.00;;;;;;5073461;28;20784;-58
2022/08/04 01:13:25;;;;;;;5.70;3.33;;;20.00;1.00;;;;;;5073225;28;20551;-54
2022/08/04 01:16:11;;;;;;;5.00;2.97;;;20.00;1.00;;;;;;5075278;28;20452;-59
2022/08/04 01:18:52;;;;;;;5.53;4.13;;;20.00;1.00;;;;;;5073854;28;20897;-57
2022/08/04 01:21:46;;;;;;;4.10;2.93;;;20.00;1.00;;;;;;5075124;28;20896;-56
2022/08/04 01:24:36;;;;;;;5.13;3.70;;;19.90;1.00;;;;;;5063246;28;20540;-51
2022/08/04 01:27:09;;;;;;;5.10;3.77;;;19.90;1.00;;;;;;5073359;28;20463;-56
2022/08/04 01:29:49;;;;;;;3.83;3.10;;;20.00;1.00;;;;;;5072329;28;20457;-53
2022/08/04 01:32:27;;;;;;;5.80;3.40;;;20.00;99.90;;;;;;5072627;28;20524;-56
2022/08/04 01:35:03;;;;;;;4.03;3.07;;;20.00;99.90;;;;;;5072663;28;20870;-56
2022/08/04 01:37:49;;;;;;;5.37;3.23;;;19.90;99.90;;;;;;5075270;28;20452;-54
2022/08/04 01:40:21;;;;;;;4.97;3.27;;;20.00;99.90;;;;;;5072618;28;20445;-54
2022/08/04 01:42:53;;;;;;;4.07;3.40;;;19.90;99.90;;;;;;5074495;28;20485;-59
2022/08/04 01:45:25;;;;;;;5.63;3.03;;;19.90;99.90;;;;;;5072071;28;20460;-59
2022/08/04 01:47:54;;;;;;;5.17;3.33;;;19.90;99.90;;;;;;5075175;28;20872;-55
2022/08/04 01:50:23;;;;;;;11.50;4.10;;;19.90;99.90;;;;;;5075047;28;20487;-58
2022/08/04 01:52:53;;;;;;;6.30;2.80;;;19.80;99.90;;;;;;5074773;28;20483;-58
2022/08/04 01:55:23;;;;;;;5.93;3.57;;;19.70;1.00;;;;;;5074999;28;20456;-59
2022/08/04 01:57:52;;;;;;;2.90;2.60;;;19.60;1.00;;;;;;5074941;28;20454;-59
2022/08/04 02:00:23;;;;;;;6.47;3.30;;;19.50;1.00;;;;;;5075062;28;20428;-59
2022/08/04 02:02:54;;;;;;;4.93;3.47;;;19.60;1.00;;;;;;5074842;28;20490;-59
2022/08/04 02:05:23;;;;;;;4.67;3.07;;;19.60;1.00;;;;;;5077425;28;20553;-59
2022/08/04 02:08:39;;;;;;;5.20;3.40;;;19.50;1.00;;;;;;5078663;28;20453;-59
2022/08/04 02:11:16;;;;;;;4.40;3.30;;;19.50;1.00;;;;;;5077246;28;20457;-58
2022/08/04 02:13:54;;;;;;;6.37;3.43;;;19.50;1.00;;;;;;5076722;28;20540;-59
2022/08/04 02:16:32;;;;;;;4.37;3.10;;;19.40;1.00;;;;;;5075838;28;20456;-59
2022/08/04 02:19:04;;;;;;;4.30;3.77;;;19.50;1.00;;;;;;5078430;28;20514;-57
2022/08/04 02:21:34;;;;;;;5.10;3.27;;;19.40;1.00;;;;;;5078430;28;20456;-57
2022/08/04 02:24:08;;;;;;;5.50;3.20;;;19.40;1.00;;;;;;5076239;28;20515;-57
2022/08/04 02:26:38;;;;;;;6.17;4.00;;;19.30;1.00;;;;;;5077884;28;20457;-59
2022/08/04 02:29:13;;;;;;;3.73;2.80;;;19.30;1.00;;;;;;5077412;28;20471;-58
2022/08/04 02:31:48;;;;;;;6.90;3.80;;;19.40;1.00;;;;;;5075873;28;20957;-59
2022/08/04 02:34:25;;;;;;;7.17;3.20;;;19.30;1.00;;;;;;5077782;28;20427;-58
2022/08/04 02:36:54;;;;;;;9.73;3.73;;;19.20;1.00;;;;;;5078292;28;20565;-59
2022/08/04 02:39:23;;;;;;;4.73;3.20;;;19.10;1.00;;;;;;5078153;28;20458;-58
2022/08/04 02:41:52;;;;;;;5.77;3.83;;;19.10;1.00;;;;;;5077648;28;20535;-58
2022/08/04 02:44:22;;;;;;;6.23;3.20;;;19.00;1.00;;;;;;5075415;28;20457;-57
2022/08/04 02:46:54;;;;;;;6.70;3.43;;;19.10;1.00;;;;;;5078346;28;20786;-57
2022/08/04 02:49:27;;;;;;;7.53;3.27;;;19.10;1.00;;;;;;5075546;28;20568;-58
2022/08/04 02:51:57;;;;;;;6.13;3.40;;;19.10;1.00;;;;;;5078160;28;20440;-55
2022/08/04 02:54:32;;;;;;;5.40;3.37;;;19.00;1.00;;;;;;5077101;28;20508;-56
2022/08/04 02:57:02;;;;;;;6.33;3.93;;;19.00;1.00;;;;;;5077591;28;20457;-56
2022/08/04 02:59:37;;;;;;;4.30;3.27;;;19.00;1.00;;;;;;5077786;28;20435;-58
2022/08/04 03:02:06;;;;;;;7.87;3.50;;;18.90;1.00;;;;;;5075480;28;20470;-57
2022/08/04 03:04:49;;;;;;;4.00;3.30;;;19.00;1.00;;;;;;5077571;28;20428;-55
2022/08/04 03:07:55;;;;;;;5.23;4.33;;;19.00;1.00;;;;;;5077297;28;20918;-57
2022/08/04 03:10:43;;;;;;;4.63;3.80;;;18.90;1.00;;;;;;5075180;28;20965;-58
2022/08/04 03:13:37;;;;;;;6.33;3.20;;;18.90;1.00;;;;;;5076112;28;20480;-58
2022/08/04 03:16:36;;;;;;;6.93;3.60;;;18.90;1.00;;;;;;5074827;28;20456;-57
2022/08/04 03:19:39;;;;;;;4.63;3.20;;;18.70;1.00;;;;;;5075087;28;20503;-54
2022/08/04 03:22:31;;;;;;;6.00;3.77;;;18.90;1.00;;;;;;5074998;28;20933;-55
2022/08/04 03:25:38;;;;;;;3.87;3.00;;;18.90;1.00;;;;;;5075872;28;20466;-55
2022/08/04 03:28:39;;;;;;;5.90;3.00;;;18.90;1.00;;;;;;5074998;28;20756;-57
2022/08/04 03:31:34;;;;;;;7.33;3.13;;;18.90;1.00;;;;;;5075444;28;20517;-57
2022/08/04 03:34:22;;;;;;;6.87;3.33;;;18.80;1.00;;;;;;5076613;28;20450;-57
2022/08/04 03:37:14;;;;;;;7.03;3.50;;;18.80;1.00;;;;;;5074498;28;20453;-56
2022/08/04 03:40:17;;;;;;;3.37;3.00;;;18.80;1.00;;;;;;5075790;28;20544;-55
2022/08/04 03:43:29;;;;;;;5.33;3.20;;;18.80;1.00;;;;;;5066672;28;20964;-56
2022/08/04 03:46:35;;;;;;;5.33;3.53;;;18.80;1.00;;;;;;5022789;28;20764;-58
2022/08/04 03:49:43;;;;;;;4.50;4.10;;;18.80;1.00;;;;;;5059574;28;20446;-58
2022/08/04 03:55:36;;;;;;;6.07;4.03;;;18.80;1.00;;;;;;5076449;28;20472;-58
2022/08/04 03:58:46;;;;;;;4.37;3.87;;;18.90;1.00;;;;;;5074284;28;20475;-55
2022/08/04 04:01:32;;;;;;;5.60;3.40;;;18.90;1.00;;;;;;5075817;28;20465;-56
2022/08/04 04:04:33;;;;;;;4.97;3.27;;;18.90;1.00;;;;;;5077629;28;20489;-57
2022/08/04 04:07:33;;;;;;;5.27;3.43;;;18.90;1.00;;;;;;5077406;28;20567;-58
2022/08/04 04:10:39;;;;;;;5.27;4.10;;;18.90;1.00;;;;;;5070428;28;20839;-56
2022/08/04 04:13:29;;;;;;;5.70;4.33;;;19.00;1.00;;;;;;5056649;28;20496;-53
2022/08/04 04:16:25;;;;;;;6.90;3.40;;;19.00;1.00;;;;;;5077739;28;20579;-54
2022/08/04 04:19:12;;;;;;;5.07;4.10;;;19.10;1.00;;;;;;5077729;28;20773;-57
2022/08/04 04:22:11;;;;;;;4.07;3.70;;;19.10;1.00;;;;;;5077847;28;20526;-53
2022/08/04 04:24:54;;;;;;;4.20;3.80;;;19.30;1.00;;;;;;5077013;28;20456;-56
2022/08/04 04:27:45;;;;;;;4.50;3.97;;;19.30;1.00;;;;;;5076900;28;20757;-57
2022/08/04 04:30:19;;;;;;;4.40;3.57;;;19.40;1.00;;;;;;5076472;28;20904;-58
2022/08/04 04:33:08;;;;;;;4.77;4.27;;;19.40;1.00;;;;;;5075449;28;20457;-54
2022/08/04 04:35:46;;;;;;;5.30;4.40;;;19.60;1.00;;;;;;5076369;28;20439;-58
2022/08/04 04:38:44;;;;;;;4.83;3.70;;;19.60;1.00;;;;;;5076589;28;20457;-58
2022/08/04 04:41:51;;;;;;;4.77;4.10;;;19.60;99.90;;;;;;5077143;28;20443;-58
2022/08/04 04:44:50;;;;;;;4.30;3.63;;;19.60;99.90;;;;;;5076709;28;20492;-55
2022/08/04 04:47:32;;;;;;;5.37;4.47;;;19.80;99.90;;;;;;5077196;28;20952;-55
2022/08/04 04:50:08;;;;;;;5.37;4.30;;;19.90;99.90;;;;;;5067083;28;20474;-50
2022/08/04 04:52:41;;;;;;;6.23;3.90;;;19.90;99.90;;;;;;5075766;28;20877;-57
2022/08/04 04:55:19;;;;;;;5.20;4.70;;;20.00;99.90;;;;;;5077009;28;20967;-58
2022/08/04 04:57:50;;;;;;;4.50;4.07;;;20.20;99.90;;;;;;5075550;28;20473;-50
2022/08/04 05:00:18;;;;;;;4.10;3.70;;;20.30;99.90;;;;;;5076256;28;20547;-55
2022/08/04 05:03:18;;;;;;;7.67;4.33;;;20.50;99.90;;;;;;5076644;28;20536;-58
2022/08/04 05:06:20;;;;;;;4.50;4.10;;;20.60;99.90;;;;;;5077538;28;20943;-58
2022/08/04 05:09:06;;;;;;;3.70;3.40;;;20.70;99.90;;;;;;5043162;28;20458;-56
2022/08/04 05:12:06;;;;;;;4.30;3.90;;;20.70;99.90;;;;;;5076319;28;20457;-58
2022/08/04 05:14:37;;;;;;;6.50;4.27;;;20.90;99.90;;;;;;5076513;28;20428;-54
2022/08/04 05:17:12;;;;;;;4.20;3.90;;;20.90;99.90;;;;;;5076757;28;20458;-55
2022/08/04 05:19:51;;;;;;;4.70;3.80;;;21.00;99.90;;;;;;5076339;28;20488;-55
2022/08/04 05:22:22;;;;;;;5.40;4.30;;;21.00;99.90;;;;;;5076010;28;20758;-53
2022/08/04 05:24:55;;;;;;;4.70;4.30;;;21.10;99.90;;;;;;5076983;28;20551;-58
2022/08/04 05:27:29;;;;;;;4.53;3.70;;;21.20;99.90;;;;;;5076999;28;20741;-58
2022/08/04 05:30:03;;;;;;;4.00;3.33;;;21.40;99.90;;;;;;5076651;28;20458;-57
2022/08/04 05:32:42;;;;;;;4.50;4.10;;;21.60;99.90;;;;;;5076780;28;20462;-57
2022/08/04 05:35:12;;;;;;;4.17;3.70;;;21.70;99.90;;;;;;5076613;28;20932;-54
2022/08/04 05:37:47;;;;;;;4.23;3.83;;;21.90;99.90;;;;;;5076837;28;20462;-58
2022/08/04 05:40:18;;;;;;;4.80;4.30;;;22.00;99.90;;;;;;5077770;28;20461;-56
2022/08/04 05:42:47;;;;;;;4.00;3.70;;;22.20;99.90;;;;;;5080314;28;21149;-56
2022/08/04 05:45:15;;;;;;;5.63;4.47;;;22.30;99.90;;;;;;5080067;28;20465;-58
2022/08/04 05:47:47;;;;;;;4.20;3.80;;;22.50;99.90;;;;;;5080619;28;20465;-56
2022/08/04 05:50:14;;;;;;;4.80;3.97;;;22.60;99.90;;;;;;5080082;28;20798;-57
2022/08/04 05:52:43;;;;;;;7.17;4.00;;;22.80;99.90;;;;;;5077327;28;20454;-57
2022/08/04 05:55:12;;;;;;;7.13;4.80;;;23.00;99.90;;;;;;5079493;28;20968;-58
2022/08/04 05:57:41;;;;;;;4.83;4.43;;;23.20;99.90;;;;;;5079603;28;20449;-58
2022/08/04 06:00:12;;;;;;;6.03;3.30;;;23.50;99.90;;;;;;5080074;28;20429;-58
2022/08/04 06:02:45;;;;;;;3.97;3.67;;;23.70;99.90;;;;;;5078954;28;20477;-55
2022/08/04 06:05:14;;;;;;;6.13;3.50;;;24.00;99.90;;;;;;5079747;28;20540;-58
2022/08/04 06:07:48;;;;;;;3.93;3.57;;;24.20;99.90;;;;;;5076585;28;20743;-55
2022/08/04 06:10:16;;;;;;;7.13;4.70;;;24.40;99.90;;;;;;5079076;28;20964;-53
2022/08/04 06:12:47;;;;;;;4.97;4.00;;;24.70;99.90;;;;;;5076107;28;20460;-53
2022/08/04 06:15:20;;;;;;;3.83;3.23;;;25.00;99.90;;;;;;5079641;28;20453;-59
2022/08/04 06:17:55;;;;;;;3.77;3.47;;;25.30;99.90;;;;;;5076845;28;20437;-55
2022/08/04 06:20:26;;;;;;;3.40;3.20;;;25.50;99.90;;;;;;5072583;28;20457;-57
2022/08/04 06:22:58;;;;;;;4.20;3.80;;;25.80;99.90;;;;;;5079314;28;20521;-59
2022/08/04 06:25:31;;;;;;;3.90;3.60;;;26.10;99.90;;;;;;5080168;28;20472;-58
2022/08/04 06:27:59;;;;;;;5.30;3.50;;;26.30;99.90;;;;;;5078867;28;20682;-59
2022/08/04 06:30:31;;;;;;;4.40;4.00;;;26.60;99.90;;;;;;5077675;28;20461;-60
2022/08/04 06:33:02;;;;;;;4.33;3.27;;;27.00;99.90;;;;;;5091032;28;20766;-60
2022/08/04 06:35:31;;;;;;;4.97;3.40;;;27.20;99.90;;;;;;5096382;28;20474;-59
2022/08/04 06:38:01;;;;;;;4.07;3.67;;;27.40;99.90;;;;;;5083065;28;20539;-60
2022/08/04 06:40:32;;;;;;;3.67;3.37;;;27.60;99.90;;;;;;5079397;28;20874;-59
2022/08/04 06:43:01;;;;;;;3.80;3.10;;;27.90;99.90;;;;;;5079632;28;20471;-59
2022/08/04 06:45:33;;;;;;;4.13;3.83;;;28.10;99.90;;;;;;5079865;28;20453;-57
2022/08/04 06:48:00;;;;;;;3.40;3.20;;;28.40;99.90;;;;;;5078803;28;20501;-58
2022/08/04 06:50:29;;;;;;;6.50;3.80;;;28.60;99.90;;;;;;5078200;28;20780;-60
2022/08/04 06:52:59;;;;;;;3.63;3.33;;;28.80;99.90;;;;;;5079046;28;20803;-60
2022/08/04 06:55:28;;;;;;;4.13;3.73;;;29.10;99.90;;;;;;5079396;28;20457;-59
2022/08/04 06:57:56;;;;;;;4.33;3.93;;;29.30;99.90;;;;;;5079268;28;20551;-58
2022/08/04 07:00:27;;;;;;;3.87;3.60;;;29.60;99.90;;;;;;5078033;28;20546;-59
2022/08/04 07:02:57;;;;;;;3.90;3.50;;;29.70;99.90;;;;;;5078811;28;20544;-57
2022/08/04 07:05:25;;;;;;;4.30;4.00;;;29.90;99.90;;;;;;5079016;28;20564;-58
2022/08/04 07:07:53;;;;;;;5.60;3.70;;;30.10;99.90;;;;;;5078651;28;20461;-60
2022/08/04 07:10:23;;;;;;;4.07;3.67;;;30.40;99.90;;;;;;5078879;28;20465;-57
2022/08/04 07:12:53;;;;;;;3.67;3.37;;;30.50;99.90;;;;;;5079185;28;20905;-58
2022/08/04 07:15:23;;;;;;;3.40;3.10;;;30.60;99.90;;;;;;5079215;28;20436;-60
2022/08/04 07:17:58;;;;;;;4.10;3.70;;;30.40;99.90;;;;;;5079023;28;20468;-56
2022/08/04 07:20:27;;;;;;;4.20;3.80;;;30.70;99.90;;;;;;5078606;28;20506;-58
2022/08/04 07:23:00;;;;;;;5.07;3.93;;;30.90;99.90;;;;;;5078377;28;20555;-59
2022/08/04 07:25:31;;;;;;;3.50;3.30;;;31.10;99.90;;;;;;5079161;28;20882;-59
2022/08/04 07:28:00;;;;;;;3.30;3.00;;;31.00;99.90;;;;;;5078190;28;20465;-58
2022/08/04 07:30:32;;;;;;;5.57;2.90;;;31.20;99.90;;;;;;5078162;28;20556;-58
2022/08/04 07:33:03;;;;;;;3.30;3.00;;;31.70;99.90;;;;;;5088160;28;20479;-60
2022/08/04 07:35:32;;;;;;;3.40;3.20;;;32.00;99.90;;;;;;5094582;28;20541;-59
2022/08/04 07:37:59;;;;;;;3.60;3.00;;;32.20;99.90;;;;;;5077092;28;20505;-59
2022/08/04 07:40:27;;;;;;;3.30;2.90;;;32.10;99.90;;;;;;5077195;28;20556;-61
2022/08/04 07:42:54;;;;;;;3.30;3.10;;;32.00;99.90;;;;;;5076264;28;20468;-59
2022/08/04 07:45:25;;;;;;;3.67;3.37;;;32.10;99.90;;;;;;5093459;28;20557;-57
2022/08/04 07:47:55;;;;;;;3.83;3.50;;;32.20;99.90;;;;;;5085952;28;20468;-57
2022/08/04 07:50:28;;;;;;;3.70;3.40;;;32.00;99.90;;;;;;5094877;28;20744;-57
2022/08/04 07:53:00;;;;;;;3.10;2.90;;;32.00;99.90;;;;;;5097409;28;20551;-58
2022/08/04 07:55:29;;;;;;;4.70;3.33;;;32.00;99.90;;;;;;5096688;28;20882;-59
2022/08/04 07:57:58;;;;;;;2.77;2.57;;;32.20;99.90;;;;;;5098270;28;20559;-58
2022/08/04 08:00:31;;;;;;;2.83;2.63;;;32.50;99.90;;;;;;5098092;28;20484;-59
2022/08/04 08:02:58;;;;;;;3.57;3.27;;;32.90;99.90;;;;;;5097908;28;20467;-57
2022/08/04 08:05:30;;;;;;;3.40;3.03;;;32.90;99.90;;;;;;5098103;28;20492;-60
2022/08/04 08:08:01;;;;;;;3.50;3.27;;;33.30;99.90;;;;;;5098467;28;20821;-58
2022/08/04 08:10:28;;;;;;;3.90;3.60;;;33.30;99.90;;;;;;5097756;28;20888;-60
2022/08/04 08:12:57;;;;;;;3.80;2.97;;;33.50;99.90;;;;;;5097682;28;20464;-61
2022/08/04 08:15:25;;;;;;;3.63;3.33;;;33.60;99.90;;;;;;5098288;28;20800;-60
2022/08/04 08:17:53;;;;;;;3.40;3.10;;;33.90;99.90;;;;;;5097778;28;20456;-60
2022/08/04 08:20:20;;;;;;;2.90;2.70;;;33.70;99.90;;;;;;5097762;28;20554;-59
2022/08/04 08:22:54;;;;;;;3.80;3.50;;;33.80;99.90;;;;;;5097808;28;20467;-57
2022/08/04 08:25:22;;;;;;;3.07;2.87;;;33.60;99.90;;;;;;5097916;28;20503;-58
2022/08/04 08:27:53;;;;;;;3.50;3.30;;;33.60;99.90;;;;;;5098085;28;20521;-61
2022/08/04 08:30:20;;;;;;;3.57;3.27;;;33.80;99.90;;;;;;5097294;28;20550;-58
2022/08/04 08:32:50;;;;;;;5.23;3.50;;;33.90;99.90;;;;;;5097323;28;20569;-58
2022/08/04 08:35:17;;;;;;;3.80;2.93;;;34.30;99.90;;;;;;5098054;28;20464;-60
2022/08/04 08:37:51;;;;;;;2.87;2.60;;;34.40;99.90;;;;;;5097745;28;20464;-61
2022/08/04 08:40:33;;;;;;;3.07;2.87;;;34.60;99.90;;;;;;5092037;28;20465;-57
2022/08/04 08:43:42;;;;;;;3.50;3.10;;;34.70;99.90;;;;;;5077534;28;20443;-59
2022/08/04 08:46:32;;;;;;;3.40;3.20;;;35.10;99.90;;;;;;5076756;28;20547;-59
2022/08/04 08:49:38;;;;;;;3.43;3.23;;;35.20;99.90;;;;;;5057583;28;20466;-61
2022/08/04 08:52:29;;;;;;;4.40;3.37;;;35.40;99.90;;;;;;5059641;28;20469;-59
2022/08/04 08:55:26;;;;;;;2.67;2.33;;;35.80;99.90;;;;;;5056759;28;20840;-59
2022/08/04 08:58:10;;;;;;;3.47;3.17;;;35.80;99.90;;;;;;5057221;28;20472;-61
2022/08/04 09:00:51;;;;;;;3.00;2.80;;;35.70;99.90;;;;;;5057086;28;20467;-61
2022/08/04 09:03:51;;;;;;;4.40;3.07;;;35.70;99.90;;;;;;5057210;28;20485;-60
2022/08/04 09:06:45;;;;;;;3.17;2.87;;;36.00;99.90;;;;;;5056678;28;20453;-61
2022/08/04 09:09:45;;;;;;;3.53;3.20;;;36.30;99.90;;;;;;5066465;28;20745;-62
2022/08/04 09:12:22;;;;;;;3.70;3.40;;;36.80;99.90;;;;;;5073572;28;20452;-61
2022/08/04 09:15:04;;;;;;;3.57;2.90;;;36.80;99.90;;;;;;5096384;28;20493;-61
2022/08/04 09:17:52;;;;;;;3.50;3.30;;;37.20;99.90;;;;;;5078579;28;20431;-55
2022/08/04 09:20:31;;;;;;;2.80;2.60;;;37.40;99.90;;;;;;5081039;28;20563;-59
2022/08/04 09:23:08;;;;;;;2.95;2.75;;;37.70;99.90;;;;;;5081156;28;20249;-56
2022/08/04 09:26:05;;;;;;;2.95;2.75;;;37.70;99.90;;;;;;5080195;28;20324;-60
2022/08/04 09:28:53;;;;;;;5.60;3.45;;;37.70;99.90;;;;;;5079240;28;20207;-59
2022/08/04 09:31:25;;;;;;;10.20;3.15;;;37.80;99.90;;;;;;5080729;28;20214;-59
2022/08/04 09:34:09;;;;;;;3.35;3.05;;;37.80;99.90;;;;;;5080335;28;20301;-59
2022/08/04 09:36:46;;;;;;;3.05;2.85;;;37.70;99.90;;;;;;5080776;28;20627;-57
2022/08/04 09:39:29;;;;;;;3.30;3.10;;;37.70;99.90;;;;;;5080212;28;20213;-59
2022/08/04 09:42:10;;;;;;;4.22;3.42;;;37.40;99.90;;;;;;5080149;28;20213;-58
2022/08/04 09:45:09;;;;;;;3.45;2.80;;;37.40;99.90;;;;;;5080418;28;20320;-60
2022/08/04 09:47:46;;;;;;;2.97;2.78;;;37.70;99.90;;;;;;5080312;28;20207;-60
2022/08/04 09:50:33;;;;;;;3.15;2.95;;;37.70;99.90;;;;;;5080223;28;20304;-59
2022/08/04 09:53:23;;;;;;;3.22;2.92;;;37.70;99.90;;;;;;5072954;28;20242;-60
2022/08/04 09:56:00;;;;;;;3.00;2.75;;;38.00;99.90;;;;;;5080162;28;20301;-60
2022/08/04 09:58:48;;;;;;;2.88;2.60;;;38.40;99.90;;;;;;5079664;28;20206;-57
2022/08/04 10:01:22;;;;;;;3.45;3.25;;;38.20;99.90;;;;;;5080101;28;20276;-58
2022/08/04 10:03:51;;;;;;;3.00;2.80;;;38.10;99.90;;;;;;5076997;28;20293;-59
2022/08/04 10:06:45;;;;;;;2.58;2.42;;;38.00;99.90;;;;;;5079196;28;20232;-53
2022/08/04 10:09:24;;;;;;;3.40;3.10;;;37.60;99.90;;;;;;5086290;28;20292;-57
2022/08/04 10:12:05;;;;;;;3.10;2.80;;;37.50;99.90;;;;;;5083078;28;20289;-59
2022/08/04 10:14:47;;;;;;;3.38;3.17;;;38.10;99.90;;;;;;5076996;28;20202;-59
2022/08/04 10:17:43;;;;;;;3.70;3.38;;;38.30;99.90;;;;;;5073350;28;20400;-56
2022/08/04 10:20:19;;;;;;;4.18;2.72;;;38.10;99.90;;;;;;5074591;28;20203;-58
2022/08/04 10:23:02;;;;;;;3.20;3.00;;;38.20;99.90;;;;;;5077393;28;20510;-59
2022/08/04 10:25:42;;;;;;;3.10;2.90;;;38.40;99.90;;;;;;5087096;28;20304;-60
2022/08/04 10:28:15;;;;;;;3.55;2.55;;;38.20;99.90;;;;;;5100178;28;20241;-59
2022/08/04 10:30:49;;;;;;;3.03;2.83;;;38.30;99.90;;;;;;5100000;28;20292;-57
2022/08/04 10:33:25;;;;;;;2.63;2.13;;;38.50;99.90;;;;;;5100054;28;20205;-58
2022/08/04 10:36:02;;;;;;;3.22;3.00;;;38.50;99.90;;;;;;5097830;28;20280;-59
2022/08/04 10:38:39;;;;;;;3.28;3.03;;;38.80;99.90;;;;;;5099719;28;20250;-57
2022/08/04 10:41:13;;;;;;;2.55;2.45;;;39.30;99.90;;;;;;5099955;28;20215;-57
2022/08/04 10:43:52;;;;;;;2.40;2.20;;;38.80;99.90;;;;;;5100071;28;20595;-56
2022/08/04 10:46:25;;;;;;;2.85;2.67;;;38.00;99.90;;;;;;5099434;28;20247;-60
2022/08/04 10:48:57;;;;;;;2.53;2.42;;;37.70;99.90;;;;;;5099763;28;20262;-56
2022/08/04 10:51:33;;;;;;;2.72;2.53;;;37.80;99.90;;;;;;5099527;28;20236;-57
2022/08/04 10:54:06;;;;;;;3.17;2.93;;;36.90;99.90;;;;;;5098994;28;20650;-57
2022/08/04 10:56:44;;;;;;;2.85;2.63;;;37.30;99.90;;;;;;5099258;28;20206;-59
2022/08/04 10:59:18;;;;;;;3.95;2.92;;;37.90;99.90;;;;;;5084959;28;20210;-57
2022/08/04 11:01:58;;;;;;;2.90;2.70;;;37.20;99.90;;;;;;5094719;28;20606;-54
2022/08/04 11:04:35;;;;;;;2.90;2.70;;;36.80;99.90;;;;;;5078254;28;20531;-59
2022/08/04 11:07:03;;;;;;;3.60;2.63;;;36.40;99.90;;;;;;5077081;28;20456;-58
2022/08/04 11:09:33;;;;;;;4.70;3.03;;;36.70;99.90;;;;;;5077530;28;20463;-54
2022/08/04 11:12:10;;;;;;;3.50;3.25;;;37.50;99.90;;;;;;5073507;28;20797;-55
2022/08/04 11:14:44;;;;;;;3.88;3.50;;;38.30;99.90;;;;;;5076690;28;20308;-60
2022/08/04 11:17:19;;;;;;;3.83;3.13;;;38.70;99.90;;;;;;5066937;28;20293;-56
2022/08/04 11:19:56;;;;;;;6.13;4.53;;;38.40;99.90;;;;;;5058420;28;20289;-59
2022/08/04 11:22:29;;;;;;;3.58;3.33;;;38.70;99.90;;;;;;5057236;28;20297;-59
2022/08/04 11:25:09;;;;;;;4.03;3.17;;;38.00;99.90;;;;;;5058499;28;20229;-58
2022/08/04 11:27:44;;;;;;;4.32;4.03;;;37.80;99.90;;;;;;5058075;28;20207;-59
2022/08/04 11:30:16;;;;;;;3.83;3.55;;;37.50;99.90;;;;;;5058444;28;20213;-55
2022/08/04 11:32:47;;;;;;;3.70;3.40;;;36.70;99.90;;;;;;5058572;28;20672;-55
2022/08/04 11:35:24;;;;;;;3.83;3.43;;;36.80;99.90;;;;;;5065041;28;20921;-54
2022/08/04 11:38:04;;;;;;;3.63;3.33;;;37.40;99.90;;;;;;5075464;28;20539;-59
2022/08/04 11:40:41;;;;;;;4.00;3.60;;;37.00;99.90;;;;;;5075835;28;20457;-55
2022/08/04 11:43:15;;;;;;;9.13;3.50;;;36.60;99.90;;;;;;5075919;28;20456;-57
2022/08/04 11:45:52;;;;;;;7.30;3.30;;;36.40;99.90;;;;;;5074415;28;20546;-56
2022/08/04 11:48:27;;;;;;;5.33;3.67;;;36.40;99.90;;;;;;5075394;28;20456;-56
2022/08/04 11:51:04;;;;;;;3.80;3.10;;;36.80;99.90;;;;;;5058029;28;20737;-58
2022/08/04 11:53:38;;;;;;;4.43;2.90;;;37.20;99.90;;;;;;5067431;28;20577;-59
2022/08/04 11:56:11;;;;;;;4.37;4.07;;;36.80;99.90;;;;;;5074268;28;20898;-56
2022/08/04 11:58:43;;;;;;;6.60;3.43;;;36.30;99.90;;;;;;5076349;28;20509;-58
2022/08/04 12:01:24;;;;;;;3.43;2.80;;;35.90;99.90;;;;;;5076836;28;20461;-53
2022/08/04 12:04:02;;;;;;;5.20;3.90;;;35.60;99.90;;;;;;5078281;28;20878;-53
2022/08/04 12:06:37;;;;;;;6.43;3.90;;;35.50;99.90;;;;;;5077046;28;20495;-54
2022/08/04 12:09:12;;;;;;;5.83;3.97;;;35.50;99.90;;;;;;5074042;28;20431;-54
2022/08/04 12:12:00;;;;;;;7.00;3.53;;;34.90;99.90;;;;;;5073794;28;20456;-57
2022/08/04 12:14:47;;;;;;;4.60;3.67;;;34.40;99.90;;;;;;5074633;28;20771;-57
2022/08/04 12:17:25;;;;;;;4.10;3.27;;;34.30;99.90;;;;;;5074094;28;20500;-59
2022/08/04 12:19:58;;;;;;;4.33;3.60;;;34.50;99.90;;;;;;5075890;28;20462;-59
2022/08/04 12:22:30;;;;;;;3.87;3.03;;;34.40;99.90;;;;;;5076304;28;20473;-54
2022/08/04 12:25:02;;;;;;;3.80;3.23;;;34.30;99.90;;;;;;5077162;28;20492;-57
2022/08/04 12:27:39;;;;;;;5.77;3.30;;;33.90;99.90;;;;;;5077708;28;20461;-50
2022/08/04 12:30:07;;;;;;;5.03;3.30;;;33.50;99.90;;;;;;5077680;28;20539;-54
2022/08/04 12:32:38;;;;;;;3.80;3.33;;;33.00;99.90;;;;;;5077324;28;20465;-51
2022/08/04 12:35:14;;;;;;;4.10;3.10;;;32.50;99.90;;;;;;5076132;28;20599;-53
2022/08/04 12:37:58;;;;;;;3.60;3.30;;;32.30;99.90;;;;;;5075913;28;20555;-57
2022/08/04 12:40:29;;;;;;;3.80;2.90;;;32.20;99.90;;;;;;5074096;28;20523;-55
2022/08/04 12:43:03;;;;;;;4.60;3.40;;;32.20;99.90;;;;;;5073578;28;20460;-57
2022/08/04 12:45:34;;;;;;;5.63;4.07;;;33.20;99.90;;;;;;5075871;28;20579;-55
2022/08/04 12:48:04;;;;;;;4.40;3.33;;;33.10;99.90;;;;;;5073009;28;20524;-57
2022/08/04 12:50:33;;;;;;;3.57;3.27;;;33.40;99.90;;;;;;5075615;28;20497;-58
2022/08/04 12:53:12;;;;;;;3.33;3.07;;;33.90;99.90;;;;;;5077308;28;20834;-52
2022/08/04 12:55:47;;;;;;;4.97;4.37;;;34.60;99.90;;;;;;5077048;28;20863;-55
2022/08/04 12:58:22;;;;;;;3.47;3.27;;;33.50;99.90;;;;;;5076763;28;20912;-53
2022/08/04 13:00:57;;;;;;;4.00;2.90;;;33.10;99.90;;;;;;5077134;28;20464;-58
2022/08/04 13:03:29;;;;;;;5.60;3.50;;;32.80;99.90;;;;;;5077317;28;20460;-53
2022/08/04 13:05:57;;;;;;;4.53;3.60;;;32.50;99.90;;;;;;5077111;28;20871;-54
2022/08/04 13:08:26;;;;;;;4.77;3.10;;;32.40;99.90;;;;;;5076858;28;20835;-52
2022/08/04 13:10:57;;;;;;;4.40;3.60;;;32.50;99.90;;;;;;5076598;28;20501;-55
2022/08/04 13:13:27;;;;;;;4.30;2.83;;;32.40;99.90;;;;;;5076728;28;20501;-53
2022/08/04 13:15:59;;;;;;;4.93;3.30;;;32.10;99.90;;;;;;5075954;28;20493;-54
2022/08/04 13:18:30;;;;;;;3.60;3.23;;;32.00;99.90;;;;;;5076790;28;20462;-58
2022/08/04 13:21:08;;;;;;;3.70;3.40;;;32.40;99.90;;;;;;5076846;28;20755;-57
2022/08/04 13:23:38;;;;;;;5.20;3.40;;;32.60;99.90;;;;;;5076043;28;20894;-56
2022/08/04 13:26:07;;;;;;;4.03;3.63;;;33.00;99.90;;;;;;5073768;28;20817;-58
2022/08/04 13:28:49;;;;;;;3.60;3.30;;;33.50;99.90;;;;;;5075361;28;20454;-56
2022/08/04 13:31:20;;;;;;;3.73;3.40;;;33.80;99.90;;;;;;5074905;28;20458;-58
2022/08/04 13:34:04;;;;;;;4.27;3.27;;;33.30;99.90;;;;;;5075395;28;20962;-57
2022/08/04 13:36:32;;;;;;;6.30;3.70;;;33.10;99.90;;;;;;5073690;28;20502;-55
2022/08/04 13:39:10;;;;;;;3.67;3.37;;;32.50;99.90;;;;;;5075967;28;20483;-58
2022/08/04 13:41:45;;;;;;;3.80;3.60;;;32.30;99.90;;;;;;5071745;28;20522;-58
2022/08/04 13:44:13;;;;;;;4.87;3.67;;;32.60;99.90;;;;;;5074423;28;20457;-55
2022/08/04 13:46:48;;;;;;;7.50;4.47;;;32.60;99.90;;;;;;5075212;28;20516;-56